Sherry, Wisconsin
Current Conditions -  °F | °C
As of 4:54 AM on Sunday 23 Nov 2014 (Local Time) from KMFI Reporting Station
Moderate Fog Moderate Fog  
Wind Chill: 41°   Ceiling: 200
Heat Index: 46°   Visibility: 0.25mi
Dew Point: 45°   Wind: 9mph
Humidity: 96%   Direction: 190°S
Pressure: 29.56"   Gusts: NA
Location:  44.6004°N, 89.889°W
Report Text: KMFI 231054Z AUTO 19008KT 1/4SM FG OVC002 08/07 A2956 RMK AO2 SLP020 T00780072
Loading
Personal Weather Stations






























Interactive Weather Map New forecast layout! Learn more

10-Day Weather Forecast

Advertisements
Track Severe Weather on mobile